createdAt,value
2022-09-06T00:02:44.879Z,1.40
2022-09-06T00:07:46.715Z,1.50
2022-09-06T00:12:48.255Z,1.40
2022-09-06T00:17:51.543Z,1.20
2022-09-06T00:22:57.411Z,1.50
2022-09-06T00:28:01.833Z,1.30
2022-09-06T00:33:03.521Z,1.40
2022-09-06T00:38:05.070Z,1.33
2022-09-06T00:43:06.689Z,1.50
2022-09-06T00:48:08.203Z,1.70
2022-09-06T00:53:09.908Z,1.43
2022-09-06T00:58:11.471Z,1.40
2022-09-06T01:03:13.414Z,1.60
2022-09-06T01:08:23.769Z,1.63
2022-09-06T01:13:34.403Z,1.90
2022-09-06T01:18:54.517Z,1.73
2022-09-06T01:24:19.508Z,2.00
2022-09-06T01:29:44.693Z,1.60
2022-09-06T01:34:52.706Z,1.93
2022-09-06T01:39:54.327Z,1.80
2022-09-06T01:45:00.061Z,1.60
2022-09-06T01:50:30.941Z,1.53
2022-09-06T01:55:44.602Z,1.67
2022-09-06T02:01:28.445Z,2.10
2022-09-06T02:06:33.904Z,1.50
2022-09-06T02:11:42.595Z,1.80
2022-09-06T02:16:45.699Z,1.90
2022-09-06T02:21:47.614Z,1.60
2022-09-06T02:26:49.681Z,1.87
2022-09-06T02:31:54.623Z,1.83
2022-09-06T02:36:56.287Z,1.77
2022-09-06T02:41:58.052Z,1.93
2022-09-06T02:47:01.391Z,1.80
2022-09-06T02:52:03.144Z,2.07
2022-09-06T02:57:04.706Z,2.00
2022-09-06T03:02:06.294Z,2.00
2022-09-06T03:07:07.825Z,1.43
2022-09-06T03:12:09.315Z,2.20
2022-09-06T03:17:10.877Z,1.90
2022-09-06T03:22:12.367Z,1.97
2022-09-06T03:27:13.852Z,1.87
2022-09-06T03:32:15.611Z,2.03
2022-09-06T03:37:17.467Z,2.00
2022-09-06T03:42:19.040Z,2.07
2022-09-06T03:47:20.842Z,2.20
2022-09-06T03:52:22.708Z,2.00
2022-09-06T03:57:24.213Z,2.17
2022-09-06T04:02:25.734Z,2.00
2022-09-06T04:07:27.248Z,1.83
2022-09-06T04:12:28.947Z,1.90
2022-09-06T04:17:30.460Z,1.97
2022-09-06T04:22:31.954Z,2.13
2022-09-06T04:27:33.465Z,2.77
2022-09-06T04:32:35.034Z,2.30
2022-09-06T04:37:36.672Z,2.50
2022-09-06T04:42:38.187Z,2.30
2022-09-06T04:47:39.882Z,2.20
2022-09-06T04:52:41.380Z,2.20
2022-09-06T04:57:45.869Z,2.23
2022-09-06T05:02:49.979Z,2.73
2022-09-06T05:07:52.899Z,2.57
2022-09-06T05:12:54.676Z,2.43
2022-09-06T05:18:04.043Z,2.83
2022-09-06T05:23:05.734Z,2.93
2022-09-06T05:28:07.671Z,3.07
2022-09-06T05:33:09.917Z,2.77
2022-09-06T05:38:11.431Z,2.67
2022-09-06T05:43:12.960Z,2.40
2022-09-06T05:48:14.621Z,2.47
2022-09-06T05:53:16.281Z,2.23
2022-09-06T05:58:17.918Z,2.40
2022-09-06T06:03:26.470Z,2.03
2022-09-06T06:08:38.427Z,1.92
2022-09-06T06:13:40.492Z,2.00
2022-09-06T06:18:42.562Z,1.95
2022-09-06T06:23:46.040Z,2.05
2022-09-06T06:28:48.793Z,2.00
2022-09-06T06:33:50.552Z,1.80
2022-09-06T06:38:54.336Z,1.85
2022-09-06T06:44:00.582Z,1.83
2022-09-06T06:49:02.369Z,1.80
2022-09-06T06:54:04.365Z,1.80
2022-09-06T06:59:07.758Z,1.48
2022-09-06T07:04:10.473Z,1.73
2022-09-06T07:09:12.100Z,1.50
2022-09-06T07:14:13.841Z,1.55
2022-09-06T07:24:39.373Z,1.40
2022-09-06T07:29:40.881Z,1.60
2022-09-06T07:34:42.402Z,1.30
2022-09-06T07:39:44.395Z,0.98
2022-09-06T07:44:46.019Z,1.20
2022-09-06T07:55:09.956Z,1.00
2022-09-06T08:00:12.446Z,1.10
2022-09-06T08:10:35.926Z,1.05
2022-09-06T08:15:41.548Z,1.10
2022-09-06T08:20:43.512Z,0.60
2022-09-06T08:25:45.037Z,0.82
2022-09-06T08:30:46.561Z,0.90
2022-09-06T08:35:57.877Z,0.50
2022-09-06T08:41:14.613Z,0.60
2022-09-06T08:46:17.532Z,0.70
2022-09-06T08:52:07.561Z,0.52
2022-09-06T08:57:21.004Z,0.60
2022-09-06T09:02:22.727Z,0.70
2022-09-06T09:07:43.730Z,1.08
2022-09-06T09:12:47.304Z,0.88
2022-09-06T09:17:50.483Z,0.75
2022-09-06T09:22:52.000Z,0.57
2022-09-06T09:27:57.769Z,0.75
2022-09-06T09:32:59.456Z,0.60
2022-09-06T09:38:11.842Z,0.70
2022-09-06T09:43:17.046Z,1.02
2022-09-06T09:48:24.650Z,0.85
2022-09-06T09:53:26.941Z,0.70
2022-09-06T09:58:37.444Z,0.73
2022-09-06T10:09:18.492Z,0.70
2022-09-06T10:14:30.120Z,0.73
2022-09-06T10:19:34.295Z,0.90
2022-09-06T10:24:54.167Z,0.85
2022-09-06T10:30:07.383Z,0.70
2022-09-06T10:35:17.912Z,0.80
2022-09-06T10:40:39.802Z,1.00
2022-09-06T10:46:04.851Z,0.75
2022-09-06T10:51:25.905Z,0.85
2022-09-06T10:56:42.339Z,0.80
2022-09-06T11:02:26.212Z,0.90
2022-09-06T11:07:31.029Z,1.10
2022-09-06T11:12:38.904Z,0.90
2022-09-06T11:17:46.143Z,0.70
2022-09-06T11:23:06.062Z,0.90
2022-09-06T11:28:11.664Z,0.93
2022-09-06T11:33:35.527Z,1.05
2022-09-06T11:38:37.463Z,0.90
2022-09-06T11:43:50.340Z,1.05
2022-09-06T11:49:07.543Z,1.20
2022-09-06T11:54:15.348Z,1.05
2022-09-06T11:59:16.754Z,1.15
2022-09-06T12:04:18.318Z,1.15
2022-09-06T12:09:36.378Z,0.93
2022-09-06T12:14:40.324Z,1.00
2022-09-06T12:19:51.693Z,1.25
2022-09-06T12:25:01.105Z,1.10
2022-09-06T12:30:08.894Z,1.10
2022-09-06T12:40:47.773Z,1.15
2022-09-06T12:45:50.996Z,1.15
2022-09-06T12:51:03.325Z,1.35
2022-09-06T12:56:07.540Z,1.40
2022-09-06T13:01:14.226Z,1.08
2022-09-06T13:06:26.014Z,1.25
2022-09-06T13:11:39.018Z,1.10
2022-09-06T13:16:45.875Z,1.17
2022-09-06T13:21:47.440Z,1.25
2022-09-06T13:26:49.520Z,1.13
2022-09-06T13:31:53.102Z,0.90
2022-09-06T13:37:00.335Z,0.77
2022-09-06T13:42:10.615Z,1.10
2022-09-06T13:47:12.127Z,0.65
2022-09-06T13:52:14.139Z,1.00
2022-09-06T13:57:19.968Z,1.10
2022-09-06T14:02:25.136Z,1.02
2022-09-06T14:07:26.770Z,0.93
2022-09-06T14:12:28.512Z,1.10
2022-09-06T14:17:30.043Z,1.08
2022-09-06T14:22:31.730Z,1.10
2022-09-06T14:27:35.214Z,0.95
2022-09-06T14:32:36.741Z,1.05
2022-09-06T14:37:38.262Z,1.00
2022-09-06T14:42:39.794Z,0.90
2022-09-06T14:47:41.830Z,0.98
2022-09-06T14:52:43.895Z,1.13
2022-09-06T14:57:45.911Z,1.30
2022-09-06T15:02:47.491Z,1.15
2022-09-06T15:07:49.614Z,0.90
2022-09-06T15:12:51.389Z,1.02
2022-09-06T15:17:52.914Z,0.95
2022-09-06T15:23:21.608Z,1.00
2022-09-06T15:28:17.800Z,0.90
2022-09-06T15:33:19.575Z,1.20
2022-09-06T15:38:21.236Z,0.85
2022-09-06T15:43:22.808Z,1.20
2022-09-06T15:48:24.346Z,1.00
2022-09-06T15:53:25.920Z,0.93
2022-09-06T15:58:27.544Z,1.38
2022-09-06T16:03:29.117Z,1.08
2022-09-06T16:08:31.167Z,0.90
2022-09-06T16:13:34.155Z,1.20
2022-09-06T16:18:37.779Z,1.00
2022-09-06T16:23:40.624Z,1.08
2022-09-06T16:28:42.160Z,1.25
2022-09-06T16:33:45.425Z,1.35
2022-09-06T16:38:47.611Z,1.02
2022-09-06T16:43:49.561Z,1.10
2022-09-06T16:48:52.665Z,0.93
2022-09-06T16:53:55.229Z,1.15
2022-09-06T16:58:58.614Z,1.20
2022-09-06T17:04:02.201Z,1.20
2022-09-06T17:09:04.762Z,1.10
2022-09-06T17:14:06.887Z,0.95
2022-09-06T17:19:09.270Z,1.33
2022-09-06T17:24:10.866Z,1.20
2022-09-06T17:29:12.425Z,1.10
2022-09-06T17:34:13.942Z,1.00
2022-09-06T17:39:18.188Z,1.23
2022-09-06T17:44:22.826Z,1.02
2022-09-06T17:49:24.535Z,1.20
2022-09-06T17:54:26.066Z,1.35
2022-09-06T17:59:31.575Z,1.08
2022-09-06T18:04:36.433Z,1.55
2022-09-06T18:09:38.464Z,1.58
2022-09-06T18:14:40.122Z,1.33
2022-09-06T18:19:41.806Z,1.15
2022-09-06T18:24:44.088Z,1.20
2022-09-06T18:29:45.727Z,1.10
2022-09-06T18:34:47.280Z,1.23
2022-09-06T18:39:48.915Z,1.00
2022-09-06T18:44:51.319Z,1.45
2022-09-06T18:49:52.880Z,1.20
2022-09-06T18:54:54.555Z,1.30
2022-09-06T18:59:56.068Z,1.02
2022-09-06T19:04:59.145Z,1.40
2022-09-06T19:10:01.136Z,1.25
2022-09-06T19:15:02.609Z,1.25
2022-09-06T19:20:05.491Z,1.33
2022-09-06T19:25:07.495Z,1.20
2022-09-06T19:30:09.589Z,1.45
2022-09-06T19:35:11.131Z,1.10
2022-09-06T19:40:13.467Z,0.80
2022-09-06T19:45:15.713Z,1.23
2022-09-06T19:50:17.921Z,1.40
2022-09-06T19:55:19.513Z,0.88
2022-09-06T20:00:21.081Z,1.38
2022-09-06T20:05:23.254Z,1.08
2022-09-06T20:10:25.655Z,1.00
2022-09-06T20:15:27.170Z,1.08
2022-09-06T20:20:28.708Z,1.17
2022-09-06T20:25:30.709Z,1.17
2022-09-06T20:30:32.301Z,1.20
2022-09-06T20:35:33.808Z,1.10
2022-09-06T20:40:35.279Z,1.17
2022-09-06T20:45:37.007Z,1.30
2022-09-06T20:50:38.499Z,1.40
2022-09-06T20:55:40.111Z,1.52
2022-09-06T21:00:41.692Z,1.48
2022-09-06T21:05:43.880Z,1.90
2022-09-06T21:10:45.664Z,1.70
2022-09-06T21:15:47.437Z,1.70
2022-09-06T21:20:56.194Z,1.80
2022-09-06T21:26:00.035Z,1.77
2022-09-06T21:31:08.073Z,2.35
2022-09-06T21:36:11.983Z,1.70
2022-09-06T21:41:15.450Z,1.73
2022-09-06T21:46:18.757Z,1.90
2022-09-06T21:51:22.568Z,1.40
2022-09-06T21:56:24.384Z,1.47
2022-09-06T22:01:27.946Z,1.60
2022-09-06T22:06:30.933Z,1.90
2022-09-06T22:11:33.972Z,1.63
2022-09-06T22:16:37.143Z,1.43
2022-09-06T22:21:40.243Z,1.60
2022-09-06T22:26:42.315Z,1.50
2022-09-06T22:31:44.092Z,1.37
2022-09-06T22:36:45.777Z,1.13
2022-09-06T22:41:47.321Z,1.27
2022-09-06T22:46:48.919Z,1.33
2022-09-06T22:51:51.323Z,1.43
2022-09-06T22:56:52.863Z,1.80
2022-09-06T23:01:54.334Z,1.40
2022-09-06T23:06:55.800Z,1.17
2022-09-06T23:11:57.269Z,1.30
2022-09-06T23:16:58.729Z,1.27
2022-09-06T23:22:00.377Z,1.60
2022-09-06T23:27:04.464Z,1.60
2022-09-06T23:32:07.057Z,1.50
2022-09-06T23:37:08.561Z,0.80
2022-09-06T23:42:10.050Z,1.00
2022-09-06T23:47:11.498Z,0.87
2022-09-06T23:52:12.959Z,1.00
2022-09-06T23:57:14.592Z,1.13
